BHD weather

George Best Belfast City Airport
Belfast, Northern Ireland, United Kingdom

Public forecast

Using degrees Celsius for public forecast. Weather courtesy of forecast.io.

Current aviation weather report (METAR) for George Best Belfast City Airport

Retrieved 2019/10/16 20:20 UTC (12 minutes ago):

EGAC 162020Z AUTO 19002KT 9999 NCD 08/06 Q1000

Closest aviation forecast (TAF) to George Best Belfast City Airport

Closest forecast is Belfast International Airport, 12.2 nm (22.5 km) WNW. Retrieved 2019/10/16 18:00 UTC (3 hours ago):

TAF EGAA 161702Z 1618/1718 23008KT 9999 FEW035 BECMG 1618/1621 16012KT PROB40 TEMPO 1712/1718 8000 SHRA